createdAt,value
2022-08-02T00:03:36.432Z,98166.47
2022-08-02T00:08:38.886Z,98164.06
2022-08-02T00:13:41.337Z,98172.91
2022-08-02T00:18:44.535Z,98162.56
2022-08-02T00:24:27.475Z,98179.22
2022-08-02T00:29:09.610Z,98171.94
2022-08-02T00:34:30.178Z,98167.84
2022-08-02T00:39:35.856Z,98171.13
2022-08-02T00:44:38.385Z,98173.88
2022-08-02T00:49:40.919Z,98169.88
2022-08-02T00:54:43.483Z,98170.84
2022-08-02T00:59:45.987Z,98167.25
2022-08-02T01:04:48.386Z,98157.78
2022-08-02T01:09:50.860Z,98154.47
2022-08-02T01:14:57.008Z,98153.66
2022-08-02T01:20:35.908Z,98161.25
2022-08-02T01:26:07.488Z,98165.69
2022-08-02T01:31:27.715Z,98175.22
2022-08-02T01:36:41.925Z,98172.56
2022-08-02T01:41:45.269Z,98180.06
2022-08-02T01:46:50.255Z,98180.91
2022-08-02T01:52:13.086Z,98173.50
2022-08-02T01:57:17.195Z,98175.28
2022-08-02T02:02:21.457Z,98185.56
2022-08-02T02:07:24.871Z,98180.13
2022-08-02T02:12:28.771Z,98199.34
2022-08-02T02:17:52.680Z,98190.00
2022-08-02T02:22:56.012Z,98181.78
2022-08-02T02:28:04.049Z,98193.09
2022-08-02T02:33:09.612Z,98184.53
2022-08-02T02:38:16.597Z,98173.59
2022-08-02T02:43:20.209Z,98179.41
2022-08-02T02:48:24.034Z,98171.84
2022-08-02T02:53:27.039Z,98168.28
2022-08-02T02:58:30.163Z,98159.41
2022-08-02T03:03:33.009Z,98159.94
2022-08-02T03:08:35.528Z,98158.59
2022-08-02T03:13:40.013Z,98160.25
2022-08-02T03:18:44.359Z,98157.50
2022-08-02T03:23:47.444Z,98167.41
2022-08-02T03:28:49.906Z,98170.41
2022-08-02T03:33:53.227Z,98170.50
2022-08-02T03:38:57.124Z,98173.50
2022-08-02T03:44:00.419Z,98177.13
2022-08-02T03:49:03.444Z,98179.66
2022-08-02T03:54:06.586Z,98184.84
2022-08-02T03:59:14.423Z,98195.94
2022-08-02T04:04:16.836Z,98198.28
2022-08-02T04:09:19.432Z,98201.28
2022-08-02T04:14:22.881Z,98217.16
2022-08-02T04:19:32.696Z,98219.78
2022-08-02T04:24:47.485Z,98218.25
2022-08-02T04:29:53.431Z,98225.56
2022-08-02T04:35:18.180Z,98223.81
2022-08-02T04:40:18.873Z,98242.25
2022-08-02T04:45:23.344Z,98240.69
2022-08-02T04:50:25.912Z,98230.59
2022-08-02T04:55:31.145Z,98230.25
2022-08-02T05:00:34.109Z,98215.50
2022-08-02T05:05:36.692Z,98228.59
2022-08-02T05:10:39.214Z,98226.09
2022-08-02T05:15:41.623Z,98227.53
2022-08-02T05:20:44.070Z,98230.31
2022-08-02T05:25:46.510Z,98227.34
2022-08-02T05:30:48.539Z,98227.59
2022-08-02T05:35:51.749Z,98219.81
2022-08-02T05:40:54.624Z,98218.78
2022-08-02T05:45:57.162Z,98221.97
2022-08-02T05:51:05.968Z,98226.09
2022-08-02T05:56:31.816Z,98235.19
2022-08-02T06:01:40.825Z,98224.00
2022-08-02T06:06:44.874Z,98234.31
2022-08-02T06:12:01.941Z,98229.44
2022-08-02T06:17:14.697Z,98240.78
2022-08-02T06:22:33.903Z,98235.91
2022-08-02T06:27:41.722Z,98238.88
2022-08-02T06:32:45.462Z,98239.84
2022-08-02T06:38:03.982Z,98240.38
2022-08-02T06:43:14.777Z,98226.63
2022-08-02T06:48:16.943Z,98224.19
2022-08-02T06:53:19.042Z,98227.66
2022-08-02T06:58:21.249Z,98232.56
2022-08-02T07:03:25.735Z,98231.50
2022-08-02T07:08:32.419Z,98228.31
2022-08-02T07:13:39.563Z,98233.53
2022-08-02T07:18:42.365Z,98243.06
2022-08-02T07:23:44.811Z,98233.38
2022-08-02T07:28:47.284Z,98228.38
2022-08-02T07:33:49.735Z,98231.44
2022-08-02T07:38:53.001Z,98231.09
2022-08-02T07:43:55.880Z,98231.97
2022-08-02T07:48:58.475Z,98233.72
2022-08-02T07:54:02.169Z,98238.34
2022-08-02T07:59:06.551Z,98241.63
2022-08-02T08:04:09.104Z,98240.84
2022-08-02T08:09:12.144Z,98245.13
2022-08-02T08:14:16.991Z,98245.78
2022-08-02T08:19:19.644Z,98241.41
2022-08-02T08:24:42.136Z,98233.16
2022-08-02T08:29:46.031Z,98242.22
2022-08-02T08:34:49.457Z,98242.28
2022-08-02T08:39:56.856Z,98236.69
2022-08-02T08:45:01.235Z,98242.63
2022-08-02T08:50:06.067Z,98231.25
2022-08-02T08:55:12.084Z,98227.88
2022-08-02T09:00:16.565Z,98233.50
2022-08-02T09:05:19.356Z,98230.84
2022-08-02T09:10:41.686Z,98222.97
2022-08-02T09:15:46.691Z,98226.59
2022-08-02T09:20:57.542Z,98229.50
2022-08-02T09:26:07.617Z,98222.75
2022-08-02T09:31:11.512Z,98211.66
2022-08-02T09:36:16.328Z,98212.47
2022-08-02T09:41:27.286Z,98201.97
2022-08-02T09:46:33.466Z,98207.59
2022-08-02T09:52:02.296Z,98210.00
2022-08-02T09:57:05.128Z,98202.63
2022-08-02T10:02:17.007Z,98209.63
2022-08-02T10:07:22.484Z,98210.50
2022-08-02T10:12:25.592Z,98213.22
2022-08-02T10:17:28.247Z,98203.47
2022-08-02T10:22:32.339Z,98195.41
2022-08-02T10:28:03.791Z,98184.13
2022-08-02T10:33:03.574Z,98182.69
2022-08-02T10:38:11.049Z,98172.41
2022-08-02T10:43:34.201Z,98164.38
2022-08-02T10:54:47.476Z,98157.84
2022-08-02T10:59:52.621Z,98161.38
2022-08-02T11:04:55.392Z,98160.63
2022-08-02T11:09:59.417Z,98157.78
2022-08-02T11:15:07.348Z,98159.47
2022-08-02T11:20:13.358Z,98145.59
2022-08-02T11:25:24.926Z,98142.00
2022-08-02T11:30:29.432Z,98135.81
2022-08-02T11:35:34.595Z,98138.41
2022-08-02T11:40:40.473Z,98138.00
2022-08-02T11:45:42.958Z,98137.47
2022-08-02T11:50:46.157Z,98130.97
2022-08-02T11:55:48.726Z,98134.91
2022-08-02T12:00:53.427Z,98119.31
2022-08-02T12:06:05.977Z,98122.69
2022-08-02T12:11:09.497Z,98115.78
2022-08-02T12:16:32.283Z,98120.47
2022-08-02T12:21:34.888Z,98120.41
2022-08-02T12:26:47.823Z,98116.22
2022-08-02T12:31:56.349Z,98118.72
2022-08-02T12:37:05.406Z,98115.94
2022-08-02T12:42:10.555Z,98112.91
2022-08-02T12:47:16.522Z,98103.06
2022-08-02T12:52:24.075Z,98100.97
2022-08-02T12:57:26.833Z,98099.88
2022-08-02T13:02:31.653Z,98089.41
2022-08-02T13:07:34.309Z,98089.75
2022-08-02T13:12:39.427Z,98091.13
2022-08-02T13:17:42.232Z,98079.88
2022-08-02T13:22:47.036Z,98084.56
2022-08-02T13:27:55.730Z,98084.94
2022-08-02T13:33:01.105Z,98078.78
2022-08-02T13:38:06.563Z,98075.72
2022-08-02T13:43:09.046Z,98075.25
2022-08-02T13:48:18.395Z,98069.84
2022-08-02T13:53:22.150Z,98047.41
2022-08-02T13:58:24.753Z,98050.03
2022-08-02T14:04:08.273Z,98043.47
2022-08-02T14:08:50.185Z,98040.94
2022-08-02T14:13:52.715Z,98042.72
2022-08-02T14:18:55.268Z,98030.59
2022-08-02T14:23:57.715Z,98032.59
2022-08-02T14:29:00.260Z,98036.25
2022-08-02T14:34:03.047Z,98024.03
2022-08-02T14:39:05.804Z,98034.13
2022-08-02T14:44:08.473Z,98027.00
2022-08-02T14:49:14.471Z,98032.19
2022-08-02T14:54:31.343Z,98021.22
2022-08-02T14:59:33.895Z,98022.63
2022-08-02T15:04:43.139Z,98021.66
2022-08-02T15:09:45.974Z,98011.00
2022-08-02T15:14:48.485Z,98012.81
2022-08-02T15:19:57.458Z,98009.03
2022-08-02T15:25:03.664Z,98012.31
2022-08-02T15:30:17.001Z,98001.44
2022-08-02T15:35:19.463Z,98006.13
2022-08-02T15:40:24.194Z,98003.72
2022-08-02T15:45:27.924Z,98003.47
2022-08-02T15:50:30.603Z,98003.91
2022-08-02T15:55:40.108Z,97990.50
2022-08-02T16:00:55.681Z,97990.00
2022-08-02T16:05:58.243Z,97999.66
2022-08-02T16:11:00.733Z,97988.75
2022-08-02T16:16:03.323Z,97988.97
2022-08-02T16:21:05.767Z,97983.53
2022-08-02T16:26:08.221Z,97987.06
2022-08-02T16:31:11.646Z,97982.53
2022-08-02T16:36:15.499Z,97984.28
2022-08-02T16:41:22.686Z,97977.69
2022-08-02T16:46:25.187Z,97972.44
2022-08-02T16:51:27.749Z,97973.09
2022-08-02T16:56:33.616Z,97971.25
2022-08-02T17:02:03.173Z,97972.06
2022-08-02T17:06:58.731Z,97967.50
2022-08-02T17:12:01.669Z,97973.00
2022-08-02T17:17:04.327Z,97979.06
2022-08-02T17:22:06.863Z,97973.66
2022-08-02T17:27:13.433Z,97975.47
2022-08-02T17:32:18.887Z,97976.53
2022-08-02T17:37:21.902Z,97979.75
2022-08-02T17:42:25.036Z,97979.69
2022-08-02T17:47:30.609Z,97977.81
2022-08-02T17:52:50.382Z,97982.31
2022-08-02T17:57:58.506Z,97983.03
2022-08-02T18:03:05.479Z,97987.47
2022-08-02T18:08:08.781Z,97978.88
2022-08-02T18:13:11.222Z,97987.53
2022-08-02T18:18:19.217Z,97984.53
2022-08-02T18:23:32.587Z,97981.78
2022-08-02T18:28:40.444Z,97981.66
2022-08-02T18:33:59.675Z,97988.00
2022-08-02T18:39:08.454Z,97988.63
2022-08-02T18:44:15.781Z,97991.91
2022-08-02T18:49:19.022Z,97990.91
2022-08-02T18:54:26.826Z,97993.41
2022-08-02T18:59:37.622Z,97994.56
2022-08-02T19:04:43.678Z,97995.88
2022-08-02T19:09:49.726Z,97993.25
2022-08-02T19:14:52.670Z,97997.38
2022-08-02T19:19:56.232Z,98001.22
2022-08-02T19:24:59.972Z,97996.72
2022-08-02T19:30:07.702Z,98007.72
2022-08-02T19:35:19.542Z,98002.16
2022-08-02T19:40:32.738Z,98007.78
2022-08-02T19:45:49.725Z,98006.09
2022-08-02T19:50:56.816Z,98015.75
2022-08-02T19:56:04.113Z,98017.59
2022-08-02T20:01:07.712Z,98020.16
2022-08-02T20:06:19.964Z,98022.56
2022-08-02T20:11:35.131Z,98022.22
2022-08-02T20:16:37.947Z,98031.22
2022-08-02T20:21:50.509Z,98026.69
2022-08-02T20:26:59.257Z,98024.44
2022-08-02T20:32:24.150Z,98023.50
2022-08-02T20:37:59.191Z,98028.53
2022-08-02T20:42:49.213Z,98023.94
2022-08-02T20:47:54.484Z,98023.13
2022-08-02T20:52:57.148Z,98024.13
2022-08-02T20:58:02.695Z,98030.38
2022-08-02T21:03:06.543Z,98029.88
2022-08-02T21:08:13.782Z,98023.69
2022-08-02T21:13:22.183Z,98029.72
2022-08-02T21:18:40.955Z,98026.69
2022-08-02T21:23:44.922Z,98013.63
2022-08-02T21:28:57.197Z,98016.66
2022-08-02T21:34:00.998Z,98010.31
2022-08-02T21:39:09.330Z,98016.50
2022-08-02T21:44:12.317Z,98013.47
2022-08-02T21:49:16.258Z,98006.31
2022-08-02T21:54:22.109Z,98018.00
2022-08-02T21:59:26.156Z,98011.88
2022-08-02T22:04:29.677Z,98014.13
2022-08-02T22:09:43.256Z,98023.53
2022-08-02T22:14:55.009Z,98028.53
2022-08-02T22:19:59.243Z,98028.53
2022-08-02T22:25:04.230Z,98031.53
2022-08-02T22:30:07.507Z,98032.91
2022-08-02T22:35:12.394Z,98036.22
2022-08-02T22:40:15.031Z,98038.78
2022-08-02T22:45:17.516Z,98043.22
2022-08-02T22:50:20.543Z,98035.63
2022-08-02T22:55:23.573Z,98035.63
2022-08-02T23:00:26.903Z,98030.50
2022-08-02T23:05:29.438Z,98033.72
2022-08-02T23:10:32.331Z,98034.63
2022-08-02T23:15:54.712Z,98027.78
2022-08-02T23:20:57.147Z,98031.38
2022-08-02T23:25:59.659Z,98037.19
2022-08-02T23:31:22.036Z,98032.28
2022-08-02T23:36:24.496Z,98036.50
2022-08-02T23:41:28.322Z,98046.53
2022-08-02T23:46:30.790Z,98043.59
2022-08-02T23:51:33.216Z,98043.97
2022-08-02T23:56:35.892Z,98035.06
